Chihuahua University, Mexico

7:02 PM MST on December 17, 2014 (GMT -0700)
Gen Div P A Roberto Fierro | Change Station
CLOSE
Current Station
Airport
Location: Chihuahua,
Elevation: 4462 ft
Nearby Weather Stations

Elev 4462 ft 28.70 °N, 105.96 °W | Updated 22 minutes ago

Scattered Clouds
Scattered Clouds
57 °F
Feels Like 57 °F
N
6
Wind Variable Wind from NNW

Today
High -- | Low -- °F
--% Chance of Precip.
Yesterday
High -- | Low -- °F
Precip. -- in
6:50 AM 5:09 PM
Waning Crescent, 18% visible
Pressure 30.10 in
Visibility 10.0 miles
Clouds Scattered Clouds 20000 ft
Dew Point 19 °F
Humidity 23%
Rainfall 0.00 in
Snow Depth Not available.
UV 0 out of 12
Pollen Not available.
Air Quality Not available.
Flu Activity Not available.
METAR MMCU 180140Z 342005KT 10SM SCT200 14/M07 A3010 RMK 8/008

More Conditions Fewer Conditions

Pressure 30.10 in
Visibility 10.0 miles
Clouds Scattered Clouds 20000 ft
Dew Point 19 °F
Humidity 23%
Rainfall 0.00 in
Snow Depth Not available.
UV 0 out of 12
Pollen Not available.
Air Quality Not available.
Flu Activity Not available.
METAR MMCU 180140Z 342005KT 10SM SCT200 14/M07 A3010 RMK 8/008

More Conditions Fewer Conditions

10-Day Weather Forecast

Almanac

Astronomy

Dec. 17, 2014 Rise Set
Actual Time
Civil Twilight
Nautical Twilight
Astronomical Twilight
Moon
Length of Visible Light
Length of Day
Tomorrow will be .
, % of the Moon is Illuminated

Today's Extremes

Country Highs Country Lows

Community

WunderPhotos

Upload Photos

1,778,859 photos uploaded!

WunderBlogs® & News

Nearby

Air Quality

  Air Quality AQ Index Pollutant
Not available.

Snow Depth

Station Depth Elevation

Earthquake Activity

City Distance Mag. Time & Date
Minimum magnitude displayed is 2.5.

Coastal Water Temperatures

Place Temperature

Nearby Weather Stations